createdAt,value
2022-07-27T00:00:06.548Z,18.50
2022-07-27T00:03:05.321Z,15.20
2022-07-27T00:05:40.053Z,12.70
2022-07-27T00:08:13.657Z,13.10
2022-07-27T00:10:46.824Z,13.20
2022-07-27T00:13:20.542Z,20.70
2022-07-27T00:15:54.169Z,14.60
2022-07-27T00:18:27.828Z,16.10
2022-07-27T00:21:01.247Z,14.40
2022-07-27T00:23:34.620Z,13.10
2022-07-27T00:26:08.331Z,13.90
2022-07-27T00:28:41.888Z,14.10
2022-07-27T00:31:15.104Z,12.80
2022-07-27T00:33:48.545Z,10.10
2022-07-27T00:36:21.690Z,11.60
2022-07-27T00:38:55.024Z,12.00
2022-07-27T00:41:28.312Z,11.80
2022-07-27T00:44:05.534Z,10.80
2022-07-27T00:46:38.851Z,9.30
2022-07-27T00:49:13.165Z,11.00
2022-07-27T00:51:47.513Z,9.70
2022-07-27T00:54:21.294Z,8.60
2022-07-27T00:56:54.473Z,8.80
2022-07-27T00:59:29.052Z,7.40
2022-07-27T01:02:02.426Z,6.90
2022-07-27T01:04:36.049Z,9.20
2022-07-27T01:07:10.024Z,7.90
2022-07-27T01:09:58.737Z,10.40
2022-07-27T01:12:33.656Z,9.30
2022-07-27T01:15:08.898Z,7.60
2022-07-27T01:17:42.668Z,7.80
2022-07-27T01:20:15.955Z,6.20
2022-07-27T01:22:49.411Z,10.40
2022-07-27T01:25:23.219Z,6.80
2022-07-27T01:27:57.312Z,6.50
2022-07-27T01:30:32.069Z,7.50
2022-07-27T01:33:07.228Z,6.60
2022-07-27T01:35:41.263Z,8.80
2022-07-27T01:38:15.434Z,5.90
2022-07-27T01:40:48.738Z,7.60
2022-07-27T01:43:22.738Z,6.90
2022-07-27T01:45:56.648Z,7.10
2022-07-27T01:48:30.183Z,9.40
2022-07-27T01:51:03.694Z,5.40
2022-07-27T01:53:37.206Z,4.80
2022-07-27T01:56:14.730Z,6.60
2022-07-27T01:58:48.565Z,5.90
2022-07-27T02:01:23.092Z,7.40
2022-07-27T02:03:57.233Z,4.00
2022-07-27T02:06:30.946Z,5.50
2022-07-27T02:09:04.496Z,5.00
2022-07-27T02:11:55.916Z,5.40
2022-07-27T02:14:29.340Z,4.00
2022-07-27T02:17:02.685Z,7.00
2022-07-27T02:19:36.863Z,4.30
2022-07-27T02:22:10.014Z,5.30
2022-07-27T02:24:43.576Z,7.80
2022-07-27T02:27:16.642Z,4.50
2022-07-27T02:29:50.024Z,7.90
2022-07-27T02:32:23.809Z,5.60
2022-07-27T02:34:57.013Z,7.90
2022-07-27T02:37:30.739Z,5.00
2022-07-27T02:40:04.253Z,7.70
2022-07-27T02:42:37.856Z,8.40
2022-07-27T02:45:12.692Z,5.10
2022-07-27T02:47:46.601Z,4.00
2022-07-27T02:50:19.779Z,7.00
2022-07-27T02:52:53.222Z,4.90
2022-07-27T02:55:26.901Z,3.80
2022-07-27T02:58:00.324Z,4.60
2022-07-27T03:00:34.597Z,6.50
2022-07-27T03:03:07.929Z,9.30
2022-07-27T03:05:41.133Z,7.10
2022-07-27T03:08:14.656Z,5.50
2022-07-27T03:10:48.751Z,5.10
2022-07-27T03:13:23.357Z,3.90
2022-07-27T03:15:56.972Z,4.10
2022-07-27T03:18:30.694Z,4.50
2022-07-27T03:21:04.306Z,5.20
2022-07-27T03:23:40.826Z,7.10
2022-07-27T03:26:14.884Z,6.30
2022-07-27T03:28:48.353Z,5.00
2022-07-27T03:31:21.583Z,5.50
2022-07-27T03:33:54.980Z,5.80
2022-07-27T03:36:28.581Z,6.80
2022-07-27T03:39:06.202Z,3.80
2022-07-27T03:41:39.878Z,6.30
2022-07-27T03:44:13.370Z,4.00
2022-07-27T03:46:47.055Z,7.50
2022-07-27T03:49:20.820Z,4.80
2022-07-27T03:51:54.139Z,4.40
2022-07-27T03:54:28.189Z,5.70
2022-07-27T03:57:02.499Z,5.40
2022-07-27T03:59:35.783Z,4.30
2022-07-27T04:02:09.409Z,3.90
2022-07-27T04:04:42.824Z,5.20
2022-07-27T04:07:16.089Z,4.20
2022-07-27T04:09:49.506Z,4.30
2022-07-27T04:12:24.242Z,4.60
2022-07-27T04:14:58.450Z,6.90
2022-07-27T04:17:53.508Z,7.20
2022-07-27T04:20:25.621Z,4.50
2022-07-27T04:22:59.019Z,3.20
2022-07-27T04:25:32.720Z,5.30
2022-07-27T04:28:06.269Z,4.40
2022-07-27T04:30:39.533Z,4.20
2022-07-27T04:33:13.286Z,5.50
2022-07-27T04:35:47.049Z,4.20
2022-07-27T04:38:20.442Z,5.00
2022-07-27T04:40:58.123Z,7.70
2022-07-27T04:43:32.029Z,6.60
2022-07-27T04:46:11.766Z,6.30
2022-07-27T04:48:49.489Z,5.20
2022-07-27T04:51:23.659Z,3.00
2022-07-27T04:53:58.361Z,7.20
2022-07-27T04:56:32.394Z,6.40
2022-07-27T04:59:05.924Z,4.70
2022-07-27T05:01:39.284Z,13.90
2022-07-27T05:04:13.078Z,6.30
2022-07-27T05:06:47.123Z,5.90
2022-07-27T05:09:22.525Z,5.70
2022-07-27T05:11:56.214Z,5.70
2022-07-27T05:14:29.517Z,5.00
2022-07-27T05:17:02.901Z,6.00
2022-07-27T05:19:40.300Z,5.10
2022-07-27T05:22:14.033Z,5.20
2022-07-27T05:24:47.271Z,4.40
2022-07-27T05:27:20.368Z,5.60
2022-07-27T05:29:53.516Z,3.30
2022-07-27T05:32:27.418Z,6.30
2022-07-27T05:35:00.851Z,3.30
2022-07-27T05:37:34.094Z,3.90
2022-07-27T05:40:09.331Z,4.60
2022-07-27T05:42:45.536Z,6.10
2022-07-27T05:45:19.365Z,5.90
2022-07-27T05:47:54.710Z,3.90
2022-07-27T05:50:28.170Z,4.40
2022-07-27T05:53:01.591Z,3.20
2022-07-27T05:55:34.916Z,5.80
2022-07-27T05:58:07.900Z,6.60
2022-07-27T06:00:41.094Z,4.50
2022-07-27T06:03:14.374Z,6.90
2022-07-27T06:05:47.432Z,4.10
2022-07-27T06:08:20.998Z,3.60
2022-07-27T06:10:54.249Z,6.00
2022-07-27T06:13:28.537Z,4.00
2022-07-27T06:16:02.090Z,4.40
2022-07-27T06:18:35.281Z,4.30
2022-07-27T06:21:08.787Z,5.30
2022-07-27T06:23:42.074Z,5.50
2022-07-27T06:26:15.680Z,4.80
2022-07-27T06:28:48.927Z,6.30
2022-07-27T06:31:22.087Z,4.20
2022-07-27T06:33:56.049Z,3.70
2022-07-27T06:36:33.591Z,6.40
2022-07-27T06:39:07.039Z,3.30
2022-07-27T06:41:40.204Z,4.40
2022-07-27T06:44:13.706Z,9.10
2022-07-27T06:46:49.523Z,4.20
2022-07-27T06:49:23.416Z,7.70
2022-07-27T06:51:56.566Z,6.50
2022-07-27T06:54:29.736Z,5.20
2022-07-27T06:57:02.703Z,4.60
2022-07-27T06:59:43.293Z,6.90
2022-07-27T07:02:17.819Z,4.20
2022-07-27T07:05:02.830Z,7.80
2022-07-27T07:07:35.988Z,4.10
2022-07-27T07:10:11.121Z,7.80
2022-07-27T07:12:44.295Z,7.00
2022-07-27T07:15:18.582Z,7.60
2022-07-27T07:17:51.934Z,5.30
2022-07-27T07:20:25.837Z,4.90
2022-07-27T07:22:59.233Z,4.60
2022-07-27T07:25:32.905Z,4.80
2022-07-27T07:28:06.300Z,5.10
2022-07-27T07:30:39.756Z,3.50
2022-07-27T07:33:12.778Z,3.50
2022-07-27T07:36:12.302Z,5.80
2022-07-27T07:38:39.278Z,5.70
2022-07-27T07:41:12.501Z,7.20
2022-07-27T07:43:46.110Z,4.60
2022-07-27T07:46:19.184Z,6.40
2022-07-27T07:48:53.371Z,4.40
2022-07-27T07:51:26.531Z,5.80
2022-07-27T07:53:59.717Z,7.50
2022-07-27T07:56:33.099Z,6.40
2022-07-27T07:59:06.624Z,4.90
2022-07-27T08:01:39.993Z,5.90
2022-07-27T08:04:13.317Z,5.70
2022-07-27T08:06:46.424Z,7.00
2022-07-27T08:09:21.857Z,11.00
2022-07-27T08:11:55.172Z,6.40
2022-07-27T08:14:28.317Z,6.70
2022-07-27T08:17:01.363Z,7.00
2022-07-27T08:19:39.870Z,7.80
2022-07-27T08:22:13.483Z,7.30
2022-07-27T08:24:46.560Z,6.20
2022-07-27T08:27:19.939Z,3.50
2022-07-27T08:29:53.011Z,4.70
2022-07-27T08:32:28.783Z,5.70
2022-07-27T08:35:02.666Z,6.80
2022-07-27T08:37:36.283Z,6.00
2022-07-27T08:43:05.552Z,10.40
2022-07-27T08:45:42.055Z,5.90
2022-07-27T08:48:18.160Z,8.30
2022-07-27T08:50:52.375Z,4.50
2022-07-27T08:53:26.400Z,5.60
2022-07-27T08:56:19.610Z,4.40
2022-07-27T08:58:52.731Z,6.10
2022-07-27T09:01:26.098Z,4.30
2022-07-27T09:03:59.561Z,5.70
2022-07-27T09:06:53.414Z,4.40
2022-07-27T09:09:27.833Z,7.30
2022-07-27T09:12:12.445Z,5.80
2022-07-27T09:14:51.113Z,4.90
2022-07-27T09:17:48.016Z,5.00
2022-07-27T09:20:22.880Z,6.60
2022-07-27T09:22:57.491Z,5.60
2022-07-27T09:28:34.301Z,5.30
2022-07-27T09:31:11.641Z,5.10
2022-07-27T09:33:50.142Z,3.90
2022-07-27T09:36:25.373Z,6.70
2022-07-27T09:39:03.595Z,4.70
2022-07-27T09:41:49.828Z,6.10
2022-07-27T09:44:42.125Z,3.30
2022-07-27T09:47:28.000Z,6.20
2022-07-27T09:50:21.174Z,8.90
2022-07-27T09:52:54.521Z,5.80
2022-07-27T09:55:28.270Z,4.60
2022-07-27T09:58:02.343Z,4.00
2022-07-27T10:00:35.611Z,4.20
2022-07-27T10:03:09.996Z,6.00
2022-07-27T10:05:44.078Z,3.50
2022-07-27T10:08:17.879Z,5.60
2022-07-27T10:10:51.683Z,4.90
2022-07-27T10:13:26.104Z,6.20
2022-07-27T10:16:00.957Z,5.10
2022-07-27T10:18:44.536Z,4.50
2022-07-27T10:21:31.073Z,4.60
2022-07-27T10:24:06.602Z,3.80
2022-07-27T10:26:41.769Z,4.30
2022-07-27T10:29:22.852Z,3.90
2022-07-27T10:32:03.657Z,4.20
2022-07-27T10:34:42.990Z,4.60
2022-07-27T10:37:18.210Z,3.10
2022-07-27T10:40:15.785Z,4.00
2022-07-27T10:42:54.407Z,5.80
2022-07-27T10:46:00.335Z,5.00
2022-07-27T10:48:48.101Z,3.90
2022-07-27T10:51:38.560Z,3.00
2022-07-27T10:54:24.159Z,7.00
2022-07-27T10:57:00.220Z,3.50
2022-07-27T11:00:11.176Z,4.20
2022-07-27T11:02:46.576Z,7.90
2022-07-27T11:05:58.445Z,7.00
2022-07-27T11:08:35.972Z,7.10
2022-07-27T11:11:08.731Z,3.70
2022-07-27T11:13:41.948Z,5.60
2022-07-27T11:16:24.408Z,5.20
2022-07-27T11:19:01.851Z,6.20
2022-07-27T11:21:37.630Z,5.50
2022-07-27T11:26:50.007Z,6.30
2022-07-27T11:29:25.361Z,3.60
2022-07-27T11:32:01.165Z,5.00
2022-07-27T11:34:36.117Z,7.40
2022-07-27T11:37:19.637Z,6.60
2022-07-27T11:40:05.015Z,4.70
2022-07-27T11:42:53.748Z,4.90
2022-07-27T11:45:33.443Z,6.30
2022-07-27T11:48:10.199Z,5.20
2022-07-27T11:51:00.584Z,5.10
2022-07-27T11:53:34.347Z,8.00
2022-07-27T11:56:08.228Z,7.10
2022-07-27T11:59:14.864Z,3.90
2022-07-27T12:01:52.805Z,3.90
2022-07-27T12:04:31.425Z,6.90
2022-07-27T12:07:11.035Z,5.60
2022-07-27T12:09:48.552Z,5.00
2022-07-27T12:12:23.581Z,5.10
2022-07-27T12:14:58.366Z,4.70
2022-07-27T12:17:33.510Z,5.70
2022-07-27T12:20:09.561Z,5.80
2022-07-27T12:22:44.844Z,6.40
2022-07-27T12:25:33.059Z,6.00
2022-07-27T12:30:41.687Z,3.80
2022-07-27T12:33:30.137Z,6.40
2022-07-27T12:36:05.249Z,6.40
2022-07-27T12:38:46.256Z,4.00
2022-07-27T12:41:29.851Z,6.60
2022-07-27T12:44:10.701Z,3.50
2022-07-27T12:46:59.877Z,4.10
2022-07-27T12:49:36.181Z,4.20
2022-07-27T12:52:13.959Z,4.80
2022-07-27T12:54:47.079Z,4.90
2022-07-27T12:57:33.870Z,8.00
2022-07-27T13:00:17.757Z,4.00
2022-07-27T13:02:50.995Z,4.70
2022-07-27T13:05:24.196Z,3.70
2022-07-27T13:07:57.912Z,3.80
2022-07-27T13:10:31.141Z,4.20
2022-07-27T13:13:04.342Z,5.30
2022-07-27T13:15:37.956Z,4.70
2022-07-27T13:18:23.953Z,3.50
2022-07-27T13:21:02.502Z,3.70
2022-07-27T13:23:38.383Z,4.10
2022-07-27T13:26:11.940Z,5.70
2022-07-27T13:28:45.336Z,4.10
2022-07-27T13:31:18.891Z,3.70
2022-07-27T13:33:52.933Z,3.00
2022-07-27T13:36:26.353Z,4.10
2022-07-27T13:39:00.546Z,3.40
2022-07-27T13:41:34.036Z,6.10
2022-07-27T13:44:10.364Z,7.30
2022-07-27T13:46:49.400Z,2.40
2022-07-27T13:49:23.666Z,2.90
2022-07-27T13:51:57.014Z,4.60
2022-07-27T13:54:30.927Z,4.10
2022-07-27T13:57:04.363Z,3.60
2022-07-27T13:59:37.757Z,5.00
2022-07-27T14:02:11.861Z,5.90
2022-07-27T14:04:45.163Z,4.90
2022-07-27T14:07:18.425Z,4.20
2022-07-27T14:10:09.815Z,5.90
2022-07-27T14:12:43.416Z,3.40
2022-07-27T14:15:17.085Z,8.00
2022-07-27T14:17:50.690Z,2.80
2022-07-27T14:20:24.357Z,3.00
2022-07-27T14:22:57.982Z,3.90
2022-07-27T14:25:32.410Z,5.00
2022-07-27T14:28:06.181Z,4.10
2022-07-27T14:30:40.106Z,5.20
2022-07-27T14:33:13.465Z,4.10
2022-07-27T14:35:46.748Z,5.30
2022-07-27T14:38:26.986Z,6.80
2022-07-27T14:41:04.531Z,5.30
2022-07-27T14:43:38.012Z,5.20
2022-07-27T14:46:11.533Z,5.00
2022-07-27T14:51:38.975Z,3.10
2022-07-27T14:54:12.440Z,5.40
2022-07-27T14:56:45.979Z,4.70
2022-07-27T14:59:19.718Z,4.20
2022-07-27T15:01:54.396Z,3.40
2022-07-27T15:04:28.296Z,4.00
2022-07-27T15:07:02.286Z,5.60
2022-07-27T15:09:36.242Z,4.70
2022-07-27T15:12:10.613Z,4.50
2022-07-27T15:14:44.009Z,5.80
2022-07-27T15:17:17.656Z,5.20
2022-07-27T15:19:52.027Z,4.80
2022-07-27T15:22:25.822Z,6.10
2022-07-27T15:24:59.097Z,6.70
2022-07-27T15:27:32.780Z,6.20
2022-07-27T15:30:07.412Z,3.50
2022-07-27T15:32:40.592Z,5.30
2022-07-27T15:35:14.291Z,4.80
2022-07-27T15:37:54.623Z,4.70
2022-07-27T15:40:41.927Z,4.20
2022-07-27T15:43:17.576Z,3.40
2022-07-27T15:45:52.412Z,4.60
2022-07-27T15:48:26.532Z,6.00
2022-07-27T15:51:00.066Z,4.90
2022-07-27T15:53:33.983Z,3.80
2022-07-27T15:56:07.593Z,4.80
2022-07-27T15:58:41.252Z,5.50
2022-07-27T16:01:14.638Z,3.70
2022-07-27T16:03:48.544Z,3.70
2022-07-27T16:06:22.224Z,6.20
2022-07-27T16:08:55.570Z,6.90
2022-07-27T16:11:29.606Z,4.50
2022-07-27T16:14:03.089Z,5.00
2022-07-27T16:16:36.659Z,5.60
2022-07-27T16:19:14.341Z,4.90
2022-07-27T16:21:53.725Z,4.20
2022-07-27T16:24:31.329Z,2.30
2022-07-27T16:27:08.427Z,5.20
2022-07-27T16:29:41.816Z,4.40
2022-07-27T16:32:15.090Z,3.20
2022-07-27T16:34:48.672Z,4.30
2022-07-27T16:37:22.491Z,6.80
2022-07-27T16:39:55.873Z,4.80
2022-07-27T16:42:29.383Z,7.50
2022-07-27T16:45:02.647Z,3.10
2022-07-27T16:47:36.821Z,4.70
2022-07-27T16:50:11.499Z,5.20
2022-07-27T16:52:44.714Z,4.70
2022-07-27T16:55:18.194Z,5.20
2022-07-27T16:57:51.652Z,3.60
2022-07-27T17:00:25.267Z,4.10
2022-07-27T17:02:58.623Z,4.60
2022-07-27T17:05:32.566Z,3.30
2022-07-27T17:08:06.768Z,4.00
2022-07-27T17:10:40.180Z,5.80
2022-07-27T17:13:15.173Z,4.50
2022-07-27T17:15:49.052Z,3.10
2022-07-27T17:18:23.224Z,6.10
2022-07-27T17:20:57.152Z,5.80
2022-07-27T17:23:35.910Z,3.10
2022-07-27T17:26:10.713Z,4.30
2022-07-27T17:28:44.683Z,8.30
2022-07-27T17:31:19.174Z,2.90
2022-07-27T17:33:53.028Z,5.80
2022-07-27T17:36:27.181Z,8.10
2022-07-27T17:39:02.693Z,4.70
2022-07-27T17:41:36.329Z,4.00
2022-07-27T17:44:10.029Z,12.60
2022-07-27T17:46:43.932Z,6.30
2022-07-27T17:49:17.544Z,4.80
2022-07-27T17:51:51.246Z,3.30
2022-07-27T17:54:24.934Z,6.30
2022-07-27T17:56:58.466Z,3.80
2022-07-27T17:59:37.941Z,5.70
2022-07-27T18:02:13.024Z,5.80
2022-07-27T18:04:47.210Z,4.70
2022-07-27T18:07:20.920Z,4.40
2022-07-27T18:09:55.006Z,8.00
2022-07-27T18:12:29.089Z,6.20
2022-07-27T18:15:20.627Z,8.10
2022-07-27T18:17:54.207Z,5.20
2022-07-27T18:20:27.887Z,8.10
2022-07-27T18:23:00.998Z,4.20
2022-07-27T18:25:34.469Z,7.30
2022-07-27T18:28:08.403Z,6.50
2022-07-27T18:30:41.794Z,8.90
2022-07-27T18:33:15.422Z,8.90
2022-07-27T18:35:49.968Z,10.70
2022-07-27T18:38:23.745Z,8.00
2022-07-27T18:40:57.033Z,5.70
2022-07-27T18:43:30.949Z,8.10
2022-07-27T18:46:04.725Z,8.10
2022-07-27T18:48:38.857Z,7.50
2022-07-27T18:51:12.148Z,12.60
2022-07-27T18:53:45.640Z,8.40
2022-07-27T18:56:19.737Z,8.10
2022-07-27T18:58:55.103Z,9.00
2022-07-27T19:01:28.611Z,12.40
2022-07-27T19:04:02.787Z,8.00
2022-07-27T19:06:37.390Z,9.50
2022-07-27T19:09:11.463Z,11.90
2022-07-27T19:11:46.229Z,11.10
2022-07-27T19:14:23.895Z,10.40
2022-07-27T19:16:58.268Z,10.10
2022-07-27T19:19:32.361Z,11.70
2022-07-27T19:22:07.058Z,9.50
2022-07-27T19:24:42.383Z,9.00
2022-07-27T19:27:17.915Z,12.00
2022-07-27T19:29:52.229Z,10.30
2022-07-27T19:32:27.217Z,8.30
2022-07-27T19:35:01.493Z,9.20
2022-07-27T19:37:36.341Z,9.10
2022-07-27T19:40:41.390Z,15.20
2022-07-27T19:43:07.187Z,10.80
2022-07-27T19:45:42.076Z,12.30
2022-07-27T19:48:16.998Z,9.60
2022-07-27T19:50:51.012Z,13.50
2022-07-27T19:53:25.182Z,14.00
2022-07-27T19:56:00.466Z,13.60
2022-07-27T19:58:34.762Z,9.90
2022-07-27T20:01:10.369Z,8.80
2022-07-27T20:03:52.125Z,9.20
2022-07-27T20:06:29.882Z,14.90
2022-07-27T20:09:08.038Z,12.50
2022-07-27T20:14:14.979Z,9.30
2022-07-27T20:16:51.285Z,9.40
2022-07-27T20:19:27.789Z,11.90
2022-07-27T20:22:02.772Z,7.00
2022-07-27T20:24:38.064Z,8.90
2022-07-27T20:27:12.127Z,9.50
2022-07-27T20:29:46.323Z,5.90
2022-07-27T20:32:19.949Z,9.30
2022-07-27T20:34:54.295Z,6.10
2022-07-27T20:37:28.057Z,9.30
2022-07-27T20:40:02.090Z,6.90
2022-07-27T20:42:35.950Z,9.00
2022-07-27T20:45:16.065Z,9.60
2022-07-27T20:47:50.013Z,10.10
2022-07-27T20:50:23.742Z,7.70
2022-07-27T20:52:58.566Z,11.70
2022-07-27T20:55:33.404Z,8.60
2022-07-27T20:58:06.687Z,7.10
2022-07-27T21:00:40.611Z,8.00
2022-07-27T21:03:13.864Z,8.60
2022-07-27T21:05:47.205Z,8.30
2022-07-27T21:08:20.620Z,7.30
2022-07-27T21:10:54.229Z,6.40
2022-07-27T21:13:28.538Z,10.00
2022-07-27T21:16:02.092Z,8.40
2022-07-27T21:18:36.140Z,10.90
2022-07-27T21:21:09.349Z,8.40
2022-07-27T21:24:00.298Z,6.00
2022-07-27T21:26:36.383Z,7.60
2022-07-27T21:29:10.975Z,5.80
2022-07-27T21:31:49.168Z,8.40
2022-07-27T21:34:24.535Z,4.80
2022-07-27T21:36:57.789Z,7.60
2022-07-27T21:39:31.681Z,6.20
2022-07-27T21:42:05.447Z,8.50
2022-07-27T21:44:38.967Z,7.30
2022-07-27T21:47:14.405Z,7.30
2022-07-27T21:49:48.206Z,7.70
2022-07-27T21:52:21.733Z,5.90
2022-07-27T21:54:55.651Z,8.10
2022-07-27T21:57:29.208Z,9.90
2022-07-27T22:00:02.606Z,6.80
2022-07-27T22:02:37.770Z,6.00
2022-07-27T22:05:12.147Z,6.10
2022-07-27T22:07:45.592Z,6.50
2022-07-27T22:10:59.642Z,6.30
2022-07-27T22:13:36.108Z,7.60
2022-07-27T22:16:13.286Z,4.80
2022-07-27T22:18:47.531Z,5.20
2022-07-27T22:21:21.545Z,6.20
2022-07-27T22:23:55.328Z,8.60
2022-07-27T22:26:29.038Z,7.70
2022-07-27T22:29:02.743Z,5.60
2022-07-27T22:31:36.417Z,6.00
2022-07-27T22:34:10.450Z,6.30
2022-07-27T22:36:44.346Z,7.90
2022-07-27T22:39:18.669Z,7.40
2022-07-27T22:41:52.096Z,6.70
2022-07-27T22:44:25.585Z,6.50
2022-07-27T22:46:59.259Z,6.80
2022-07-27T22:49:32.506Z,5.20
2022-07-27T22:52:06.462Z,6.10
2022-07-27T22:54:40.309Z,6.40
2022-07-27T22:57:14.135Z,4.80
2022-07-27T22:59:47.153Z,5.70
2022-07-27T23:02:21.249Z,7.40
2022-07-27T23:04:56.660Z,6.70
2022-07-27T23:07:30.362Z,7.10
2022-07-27T23:10:03.887Z,6.10
2022-07-27T23:12:37.043Z,5.80
2022-07-27T23:15:11.976Z,5.60
2022-07-27T23:17:45.412Z,6.30
2022-07-27T23:20:19.061Z,6.50
2022-07-27T23:22:52.681Z,7.30
2022-07-27T23:25:36.285Z,5.40
2022-07-27T23:28:10.178Z,5.90
2022-07-27T23:30:44.046Z,7.80
2022-07-27T23:33:17.657Z,6.50
2022-07-27T23:35:51.425Z,7.90
2022-07-27T23:38:24.692Z,8.20
2022-07-27T23:40:58.289Z,6.70
2022-07-27T23:43:31.657Z,4.30
2022-07-27T23:46:04.966Z,6.80
2022-07-27T23:48:38.775Z,5.60
2022-07-27T23:51:17.128Z,5.10
2022-07-27T23:53:50.789Z,6.60
2022-07-27T23:56:24.143Z,6.60
2022-07-27T23:58:57.850Z,5.50
